TimeCST,TemperatureF,Dew PointF,Humidity,Sea Level PressureIn,VisibilityMPH,Wind Direction,Wind SpeedMPH,Gust SpeedMPH,PrecipitationIn,Events,Conditions,WindDirDegrees,DateUTC
12:13 AM,-7.6,-16.6,65,30.38,10.0,NW,17.3,-,N/A,,Clear,320,2013-01-21 06:13:00
12:33 AM,-9.4,-18.4,65,30.38,10.0,NW,15.0,-,N/A,,Clear,320,2013-01-21 06:33:00
12:53 AM,-9.4,-18.4,65,30.39,10.0,NW,18.4,24.2,N/A,,Clear,310,2013-01-21 06:53:00
1:13 AM,-9.4,-18.4,65,30.38,10.0,NW,15.0,19.6,N/A,,Clear,310,2013-01-21 07:13:00
1:33 AM,-9.4,-18.4,65,30.38,10.0,NW,12.7,-,N/A,,Clear,310,2013-01-21 07:33:00
1:53 AM,-9.4,-18.4,65,30.38,10.0,NW,11.5,-,N/A,,Clear,310,2013-01-21 07:53:00
2:13 AM,-9.4,-18.4,65,30.39,10.0,WNW,10.4,-,N/A,,Clear,300,2013-01-21 08:13:00
2:33 AM,-9.4,-18.4,65,30.39,10.0,WNW,11.5,-,N/A,,Clear,300,2013-01-21 08:33:00
2:54 AM,-9.4,-18.4,65,30.38,10.0,NW,15.0,18.4,N/A,,Clear,310,2013-01-21 08:54:00
3:13 AM,-9.4,-16.6,71,30.38,10.0,WNW,11.5,-,N/A,,Clear,300,2013-01-21 09:13:00
3:33 AM,-9.4,-18.4,65,30.38,10.0,NW,15.0,-,N/A,,Clear,310,2013-01-21 09:33:00
3:54 AM,-9.4,-18.4,65,30.37,10.0,WNW,9.2,-,N/A,,Clear,300,2013-01-21 09:54:00
4:14 AM,-9.4,-18.4,65,30.37,10.0,WNW,10.4,16.1,N/A,,Clear,300,2013-01-21 10:14:00
4:33 AM,-9.4,-18.4,65,30.37,10.0,NW,12.7,-,N/A,,Clear,310,2013-01-21 10:33:00
4:54 AM,-9.4,-18.4,65,30.37,10.0,WNW,11.5,-,N/A,,Clear,300,2013-01-21 10:54:00
5:13 AM,-9.4,-18.4,65,30.36,10.0,WNW,13.8,-,N/A,,Clear,290,2013-01-21 11:13:00
5:53 AM,-9.4,-18.4,65,30.36,10.0,WNW,11.5,-,N/A,,Clear,300,2013-01-21 11:53:00
6:14 AM,-9.4,-18.4,65,30.36,10.0,WNW,12.7,-,N/A,,Clear,300,2013-01-21 12:14:00
6:33 AM,-9.4,-18.4,65,30.36,10.0,WNW,10.4,-,N/A,,Clear,300,2013-01-21 12:33:00
6:54 AM,-9.4,-18.4,65,30.35,10.0,WNW,10.4,-,N/A,,Clear,300,2013-01-21 12:54:00
7:13 AM,-9.4,-18.4,65,30.35,10.0,WNW,10.4,-,N/A,,Clear,300,2013-01-21 13:13:00
7:33 AM,-11.2,-18.4,70,30.35,10.0,WNW,10.4,-,N/A,,Clear,300,2013-01-21 13:33:00
7:53 AM,-11.2,-18.4,70,30.35,10.0,WNW,11.5,-,N/A,,Clear,300,2013-01-21 13:53:00
8:13 AM,-9.4,-18.4,65,30.35,10.0,WNW,11.5,-,N/A,,Clear,300,2013-01-21 14:13:00
8:33 AM,-9.4,-18.4,65,30.36,10.0,WNW,9.2,-,N/A,,Clear,300,2013-01-21 14:33:00
8:54 AM,-9.4,-18.4,65,30.36,10.0,WNW,9.2,-,N/A,,Clear,300,2013-01-21 14:54:00
9:13 AM,-9.4,-18.4,65,30.37,10.0,WNW,11.5,-,N/A,,Clear,300,2013-01-21 15:13:00
9:33 AM,-7.6,-18.4,59,30.37,10.0,WNW,10.4,-,N/A,,Clear,300,2013-01-21 15:33:00
9:53 AM,-7.6,-16.6,65,30.38,10.0,NW,12.7,-,N/A,,Clear,310,2013-01-21 15:53:00
10:13 AM,-7.6,-16.6,65,30.38,10.0,NW,13.8,-,N/A,,Clear,310,2013-01-21 16:13:00
10:33 AM,-5.8,-16.6,60,30.38,10.0,NW,16.1,-,N/A,,Clear,310,2013-01-21 16:33:00
10:53 AM,-5.8,-14.8,65,30.38,10.0,NW,17.3,-,N/A,,Clear,320,2013-01-21 16:53:00
11:13 AM,-5.8,-14.8,65,30.38,10.0,NW,15.0,-,N/A,,Clear,310,2013-01-21 17:13:00
11:33 AM,-5.8,-14.8,65,30.37,10.0,NW,16.1,21.9,N/A,,Clear,310,2013-01-21 17:33:00
11:53 AM,-4.0,-14.8,60,30.36,10.0,WNW,15.0,-,N/A,,Clear,300,2013-01-21 17:53:00
12:13 PM,-2.2,-13.0,60,30.35,10.0,NW,11.5,-,N/A,,Clear,310,2013-01-21 18:13:00
12:34 PM,-2.2,-13.0,60,30.34,10.0,NW,13.8,-,N/A,,Clear,310,2013-01-21 18:34:00
12:53 PM,-2.2,-13.0,60,30.34,10.0,WNW,13.8,18.4,N/A,,Clear,300,2013-01-21 18:53:00
1:13 PM,-0.4,-11.2,60,30.32,10.0,WNW,13.8,-,N/A,,Clear,300,2013-01-21 19:13:00
1:34 PM,-0.4,-11.2,60,30.31,10.0,WNW,12.7,-,N/A,,Clear,300,2013-01-21 19:34:00
1:54 PM,-0.4,-11.2,60,30.31,10.0,WNW,16.1,-,N/A,,Clear,300,2013-01-21 19:54:00
2:13 PM,-0.4,-11.2,60,30.30,10.0,WNW,15.0,-,N/A,,Clear,290,2013-01-21 20:13:00
2:34 PM,1.4,-9.4,61,30.30,10.0,West,13.8,-,N/A,,Clear,280,2013-01-21 20:34:00
2:53 PM,1.4,-9.4,61,30.30,10.0,WNW,12.7,-,N/A,,Scattered Clouds,300,2013-01-21 20:53:00
3:13 PM,1.4,-9.4,61,30.30,10.0,WNW,11.5,-,N/A,,Clear,300,2013-01-21 21:13:00
3:33 PM,1.4,-9.4,61,30.30,10.0,WNW,10.4,-,N/A,,Clear,300,2013-01-21 21:33:00
3:53 PM,1.4,-9.4,61,30.29,10.0,WNW,15.0,-,N/A,,Clear,300,2013-01-21 21:53:00
4:13 PM,1.4,-9.4,61,30.29,10.0,WNW,13.8,-,N/A,,Clear,300,2013-01-21 22:13:00
4:53 PM,1.4,-9.4,61,30.29,10.0,WNW,11.5,-,N/A,,Clear,290,2013-01-21 22:53:00
5:13 PM,-0.4,-9.4,66,30.29,10.0,West,9.2,-,N/A,,Clear,270,2013-01-21 23:13:00
5:33 PM,-0.4,-9.4,66,30.28,10.0,West,9.2,-,N/A,,Clear,280,2013-01-21 23:33:00
5:53 PM,-2.2,-9.4,71,30.29,10.0,West,9.2,-,N/A,,Clear,280,2013-01-21 23:53:00
6:13 PM,-2.2,-9.4,71,30.29,10.0,West,8.1,-,N/A,,Clear,270,2013-01-22 00:13:00
6:34 PM,-2.2,-9.4,71,30.28,10.0,West,8.1,-,N/A,,Clear,270,2013-01-22 00:34:00
6:53 PM,-2.2,-9.4,71,30.28,10.0,West,9.2,-,N/A,,Clear,280,2013-01-22 00:53:00
7:13 PM,-4.0,-11.2,71,30.29,10.0,WNW,9.2,-,N/A,,Clear,290,2013-01-22 01:13:00
7:33 PM,-0.4,-9.4,66,30.29,10.0,WNW,11.5,-,N/A,,Clear,300,2013-01-22 01:33:00
7:53 PM,-2.2,-9.4,71,30.29,10.0,WNW,8.1,-,N/A,,Clear,290,2013-01-22 01:53:00
8:13 PM,-2.2,-9.4,71,30.29,10.0,WNW,8.1,-,N/A,,Clear,290,2013-01-22 02:13:00
8:33 PM,-2.2,-9.4,71,30.29,10.0,WNW,8.1,-,N/A,,Clear,290,2013-01-22 02:33:00
8:53 PM,-4.0,-11.2,71,30.29,10.0,WNW,5.8,-,N/A,,Clear,300,2013-01-22 02:53:00
9:13 PM,-5.8,-11.2,77,30.30,10.0,WNW,4.6,-,N/A,,Clear,300,2013-01-22 03:13:00
9:33 PM,-5.8,-11.2,77,30.31,10.0,NNW,3.5,-,N/A,,Clear,330,2013-01-22 03:33:00
9:54 PM,-5.8,-11.2,77,30.31,10.0,NW,3.5,-,N/A,,Clear,320,2013-01-22 03:54:00
10:13 PM,-5.8,-11.2,77,30.31,10.0,NW,4.6,-,N/A,,Clear,320,2013-01-22 04:13:00
10:33 PM,-5.8,-11.2,77,30.31,10.0,NW,3.5,-,N/A,,Clear,310,2013-01-22 04:33:00
10:53 PM,-7.6,-13.0,77,30.32,10.0,WNW,3.5,-,N/A,,Clear,290,2013-01-22 04:53:00
11:13 PM,-9.4,-14.8,77,30.32,10.0,WNW,3.5,-,N/A,,Clear,290,2013-01-22 05:13:00
11:54 PM,-7.6,-14.8,71,30.32,10.0,NW,3.5,-,N/A,,Clear,310,2013-01-22 05:54:00